sensor_id;sensor_type;location;lat;lon;timestamp;pressure;altitude;pressure_sealevel;temperature;humidity
75424;BME280;64005;55.160;36.002;2023-05-23T00:02:20;99442.16;;;11.21;76.73
75424;BME280;64005;55.160;36.002;2023-05-23T00:04:49;99451.16;;;11.26;76.33
75424;BME280;64005;55.160;36.002;2023-05-23T00:07:17;99449.34;;;11.30;76.77
75424;BME280;64005;55.160;36.002;2023-05-23T00:09:44;99450.34;;;11.34;76.86
75424;BME280;64005;55.160;36.002;2023-05-23T00:12:12;99443.75;;;11.39;76.60
75424;BME280;64005;55.160;36.002;2023-05-23T00:14:39;99448.34;;;11.43;76.45
75424;BME280;64005;55.160;36.002;2023-05-23T00:17:07;99439.19;;;11.43;76.50
75424;BME280;64005;55.160;36.002;2023-05-23T00:19:35;99436.72;;;11.41;77.14
75424;BME280;64005;55.160;36.002;2023-05-23T00:22:04;99441.97;;;11.43;76.90
75424;BME280;64005;55.160;36.002;2023-05-23T00:24:32;99440.00;;;11.43;77.44
75424;BME280;64005;55.160;36.002;2023-05-23T00:26:59;99441.16;;;11.42;77.39
75424;BME280;64005;55.160;36.002;2023-05-23T00:29:27;99436.03;;;11.44;77.25
75424;BME280;64005;55.160;36.002;2023-05-23T00:31:54;99437.22;;;11.43;76.76
75424;BME280;64005;55.160;36.002;2023-05-23T00:34:22;99438.38;;;11.42;77.21
75424;BME280;64005;55.160;36.002;2023-05-23T00:36:49;99434.59;;;11.38;77.54
75424;BME280;64005;55.160;36.002;2023-05-23T00:39:18;99445.25;;;11.36;76.88
75424;BME280;64005;55.160;36.002;2023-05-23T00:41:46;99443.63;;;11.35;77.06
75424;BME280;64005;55.160;36.002;2023-05-23T00:44:13;99447.88;;;11.33;77.22
75424;BME280;64005;55.160;36.002;2023-05-23T00:46:43;99436.91;;;11.28;77.67
75424;BME280;64005;55.160;36.002;2023-05-23T00:49:12;99437.22;;;11.26;77.95
75424;BME280;64005;55.160;36.002;2023-05-23T00:51:40;99437.56;;;11.25;77.76
75424;BME280;64005;55.160;36.002;2023-05-23T00:54:08;99430.69;;;11.22;77.33
75424;BME280;64005;55.160;36.002;2023-05-23T00:56:38;99419.06;;;11.11;77.54
75424;BME280;64005;55.160;36.002;2023-05-23T00:59:07;99379.81;;;10.79;77.68
75424;BME280;64005;55.160;36.002;2023-05-23T01:01:35;99436.44;;;11.08;77.80
75424;BME280;64005;55.160;36.002;2023-05-23T01:04:02;99425.94;;;11.05;77.70
75424;BME280;64005;55.160;36.002;2023-05-23T01:06:31;99416.97;;;11.00;77.85
75424;BME280;64005;55.160;36.002;2023-05-23T01:08:59;99427.28;;;10.99;77.92
75424;BME280;64005;55.160;36.002;2023-05-23T01:11:34;99431.88;;;10.95;77.84
75424;BME280;64005;55.160;36.002;2023-05-23T01:14:10;99424.47;;;10.91;77.76
75424;BME280;64005;55.160;36.002;2023-05-23T01:16:44;99414.34;;;10.77;77.88
75424;BME280;64005;55.160;36.002;2023-05-23T01:19:38;99422.38;;;10.79;77.65
75424;BME280;64005;55.160;36.002;2023-05-23T01:22:20;99419.25;;;10.72;78.27
75424;BME280;64005;55.160;36.002;2023-05-23T01:24:54;99402.72;;;10.58;77.87
75424;BME280;64005;55.160;36.002;2023-05-23T01:27:40;99403.19;;;10.52;78.11
75424;BME280;64005;55.160;36.002;2023-05-23T01:30:11;99412.38;;;10.52;78.73
75424;BME280;64005;55.160;36.002;2023-05-23T01:32:39;99413.66;;;10.46;78.71
75424;BME280;64005;55.160;36.002;2023-05-23T01:35:09;99409.09;;;10.42;78.72
75424;BME280;64005;55.160;36.002;2023-05-23T01:37:39;99407.78;;;10.39;78.51
75424;BME280;64005;55.160;36.002;2023-05-23T01:40:07;99413.66;;;10.38;78.21
75424;BME280;64005;55.160;36.002;2023-05-23T01:42:35;99408.44;;;10.36;78.65
75424;BME280;64005;55.160;36.002;2023-05-23T01:45:05;99406.59;;;10.31;78.33
75424;BME280;64005;55.160;36.002;2023-05-23T01:47:34;99409.06;;;10.24;78.38
75424;BME280;64005;55.160;36.002;2023-05-23T01:50:03;99396.13;;;10.20;78.36
75424;BME280;64005;55.160;36.002;2023-05-23T01:52:32;99395.63;;;10.18;78.71
75424;BME280;64005;55.160;36.002;2023-05-23T01:55:00;99395.94;;;10.16;78.29
75424;BME280;64005;55.160;36.002;2023-05-23T01:57:32;99399.84;;;10.15;78.39
75424;BME280;64005;55.160;36.002;2023-05-23T02:00:00;99402.34;;;10.17;78.30
75424;BME280;64005;55.160;36.002;2023-05-23T02:02:32;99399.72;;;10.20;78.48
75424;BME280;64005;55.160;36.002;2023-05-23T02:04:59;99399.09;;;10.23;78.67
75424;BME280;64005;55.160;36.002;2023-05-23T02:07:29;99392.22;;;10.29;78.69
75424;BME280;64005;55.160;36.002;2023-05-23T02:09:56;99392.06;;;10.34;78.36
75424;BME280;64005;55.160;36.002;2023-05-23T02:12:24;99387.66;;;10.42;78.22
75424;BME280;64005;55.160;36.002;2023-05-23T02:14:52;99396.34;;;10.49;78.23
75424;BME280;64005;55.160;36.002;2023-05-23T02:17:20;99394.84;;;10.52;77.98
75424;BME280;64005;55.160;36.002;2023-05-23T02:19:51;99393.22;;;10.59;77.85
75424;BME280;64005;55.160;36.002;2023-05-23T02:22:22;99388.50;;;10.68;77.66
75424;BME280;64005;55.160;36.002;2023-05-23T02:24:50;99391.59;;;10.75;77.15
75424;BME280;64005;55.160;36.002;2023-05-23T02:27:18;99377.53;;;10.81;76.78
75424;BME280;64005;55.160;36.002;2023-05-23T02:29:46;99376.53;;;10.85;77.31
75424;BME280;64005;55.160;36.002;2023-05-23T02:32:13;99381.59;;;10.92;76.73
75424;BME280;64005;55.160;36.002;2023-05-23T02:34:41;99385.69;;;11.03;77.06
75424;BME280;64005;55.160;36.002;2023-05-23T02:37:13;99394.69;;;11.00;77.08
75424;BME280;64005;55.160;36.002;2023-05-23T02:39:41;99388.75;;;11.19;76.98
75424;BME280;64005;55.160;36.002;2023-05-23T02:42:09;99384.13;;;11.40;76.56
75424;BME280;64005;55.160;36.002;2023-05-23T02:44:36;99380.22;;;11.70;76.66
75424;BME280;64005;55.160;36.002;2023-05-23T02:47:04;99377.47;;;12.08;75.62
75424;BME280;64005;55.160;36.002;2023-05-23T02:49:42;99345.22;;;12.19;75.30
75424;BME280;64005;55.160;36.002;2023-05-23T03:02:32;99364.88;;;13.51;73.78
75424;BME280;64005;55.160;36.002;2023-05-23T03:15:27;99385.09;;;14.54;72.13
75424;BME280;64005;55.160;36.002;2023-05-23T03:17:56;99371.78;;;14.51;72.05
75424;BME280;64005;55.160;36.002;2023-05-23T03:35:56;99387.19;;;14.85;71.43
75424;BME280;64005;55.160;36.002;2023-05-23T03:51:47;99377.38;;;14.91;71.64
75424;BME280;64005;55.160;36.002;2023-05-23T03:54:15;99380.53;;;15.17;71.09
75424;BME280;64005;55.160;36.002;2023-05-23T04:09:54;99357.25;;;15.44;70.02
75424;BME280;64005;55.160;36.002;2023-05-23T04:12:21;99354.25;;;15.37;70.11
75424;BME280;64005;55.160;36.002;2023-05-23T04:41:17;99318.59;;;15.66;68.96
75424;BME280;64005;55.160;36.002;2023-05-23T04:43:48;99353.41;;;15.96;69.03
75424;BME280;64005;55.160;36.002;2023-05-23T05:05:49;99249.41;;;15.89;68.52
75424;BME280;64005;55.160;36.002;2023-05-23T05:27:54;99338.81;;;16.76;67.78
75424;BME280;64005;55.160;36.002;2023-05-23T05:30:22;99344.06;;;16.97;67.44
75424;BME280;64005;55.160;36.002;2023-05-23T06:55:06;99326.28;;;20.41;58.09
75424;BME280;64005;55.160;36.002;2023-05-23T07:18:38;99267.88;;;20.01;55.46
75424;BME280;64005;55.160;36.002;2023-05-23T07:31:27;99324.28;;;20.45;54.98
75424;BME280;64005;55.160;36.002;2023-05-23T12:19:36;99304.09;;;20.46;59.48
75424;BME280;64005;55.160;36.002;2023-05-23T12:39:04;99314.59;;;19.95;62.01
75424;BME280;64005;55.160;36.002;2023-05-23T12:41:34;99307.34;;;19.94;62.14
75424;BME280;64005;55.160;36.002;2023-05-23T12:51:52;99311.63;;;19.77;63.34
75424;BME280;64005;55.160;36.002;2023-05-23T13:31:11;99314.22;;;18.82;66.42
75424;BME280;64005;55.160;36.002;2023-05-23T13:36:40;99326.41;;;18.59;67.30
75424;BME280;64005;55.160;36.002;2023-05-23T13:41:43;99292.34;;;18.15;68.02
75424;BME280;64005;55.160;36.002;2023-05-23T13:44:11;99294.97;;;18.01;68.69
75424;BME280;64005;55.160;36.002;2023-05-23T13:46:41;99320.38;;;18.08;68.78
75424;BME280;64005;55.160;36.002;2023-05-23T13:49:09;99320.25;;;17.98;69.35
75424;BME280;64005;55.160;36.002;2023-05-23T13:51:37;99321.31;;;17.90;69.70
75424;BME280;64005;55.160;36.002;2023-05-23T13:54:05;99319.25;;;17.86;69.77
75424;BME280;64005;55.160;36.002;2023-05-23T13:56:37;99321.69;;;17.88;69.56
75424;BME280;64005;55.160;36.002;2023-05-23T13:59:05;99276.91;;;17.57;69.86
75424;BME280;64005;55.160;36.002;2023-05-23T14:01:33;99318.94;;;17.92;69.69
75424;BME280;64005;55.160;36.002;2023-05-23T14:04:02;99315.19;;;17.84;69.93
75424;BME280;64005;55.160;36.002;2023-05-23T14:06:30;99321.47;;;17.74;70.14
75424;BME280;64005;55.160;36.002;2023-05-23T14:08:58;99320.03;;;17.61;70.65
75424;BME280;64005;55.160;36.002;2023-05-23T14:24:24;99218.63;;;17.08;70.29
75424;BME280;64005;55.160;36.002;2023-05-23T14:26:52;99312.44;;;17.65;70.60
75424;BME280;64005;55.160;36.002;2023-05-23T14:29:20;99310.94;;;17.71;70.59
75424;BME280;64005;55.160;36.002;2023-05-23T14:31:48;99279.56;;;17.46;70.63
75424;BME280;64005;55.160;36.002;2023-05-23T14:34:16;99310.25;;;17.55;71.02
75424;BME280;64005;55.160;36.002;2023-05-23T14:39:37;99311.50;;;17.34;71.76
75424;BME280;64005;55.160;36.002;2023-05-23T14:42:05;99310.47;;;17.23;71.85
75424;BME280;64005;55.160;36.002;2023-05-23T14:47:08;99181.22;;;16.23;72.25
75424;BME280;64005;55.160;36.002;2023-05-23T14:49:36;99308.00;;;16.99;72.71
75424;BME280;64005;55.160;36.002;2023-05-23T14:52:04;99305.63;;;17.01;72.63
75424;BME280;64005;55.160;36.002;2023-05-23T14:54:31;99292.09;;;17.06;72.41
75424;BME280;64005;55.160;36.002;2023-05-23T14:57:01;99298.94;;;17.09;72.40
75424;BME280;64005;55.160;36.002;2023-05-23T14:59:29;99301.75;;;17.09;72.38
75424;BME280;64005;55.160;36.002;2023-05-23T15:04:32;99268.34;;;17.04;71.95
75424;BME280;64005;55.160;36.002;2023-05-23T15:07:00;99256.59;;;16.98;72.06
75424;BME280;64005;55.160;36.002;2023-05-23T15:17:58;99182.69;;;16.37;72.88
75424;BME280;64005;55.160;36.002;2023-05-23T15:20:29;99289.50;;;16.98;72.95
75424;BME280;64005;55.160;36.002;2023-05-23T15:28:07;99248.03;;;16.53;73.68
75424;BME280;64005;55.160;36.002;2023-05-23T15:30:35;99282.44;;;16.65;73.99
75424;BME280;64005;55.160;36.002;2023-05-23T15:33:04;99278.25;;;16.59;74.15
75424;BME280;64005;55.160;36.002;2023-05-23T15:40:43;99266.00;;;16.48;74.54
75424;BME280;64005;55.160;36.002;2023-05-23T15:43:12;99262.81;;;16.50;74.61
75424;BME280;64005;55.160;36.002;2023-05-23T15:45:40;99254.97;;;16.40;74.82
75424;BME280;64005;55.160;36.002;2023-05-23T15:48:09;99268.81;;;16.48;74.71
75424;BME280;64005;55.160;36.002;2023-05-23T15:50:37;99259.13;;;16.46;74.82
75424;BME280;64005;55.160;36.002;2023-05-23T15:53:04;99259.84;;;16.43;75.17
75424;BME280;64005;55.160;36.002;2023-05-23T16:03:46;99153.59;;;15.68;75.26
75424;BME280;64005;55.160;36.002;2023-05-23T16:06:14;99263.41;;;16.40;75.28
75424;BME280;64005;55.160;36.002;2023-05-23T16:11:21;99149.81;;;15.60;75.38
75424;BME280;64005;55.160;36.002;2023-05-23T16:16:26;99189.28;;;15.86;75.46
75424;BME280;64005;55.160;36.002;2023-05-23T16:21:31;99177.69;;;15.88;75.34
75424;BME280;64005;55.160;36.002;2023-05-23T16:23:59;99259.03;;;16.42;75.81
75424;BME280;64005;55.160;36.002;2023-05-23T16:26:26;99252.63;;;16.42;75.61
75424;BME280;64005;55.160;36.002;2023-05-23T16:28:54;99121.41;;;15.62;75.65
75424;BME280;64005;55.160;36.002;2023-05-23T16:31:25;99135.84;;;15.64;75.73
75424;BME280;64005;55.160;36.002;2023-05-23T16:33:53;99240.94;;;16.40;75.87
75424;BME280;64005;55.160;36.002;2023-05-23T16:36:21;99248.47;;;16.36;75.97
75424;BME280;64005;55.160;36.002;2023-05-23T16:38:51;99171.97;;;15.84;76.04
75424;BME280;64005;55.160;36.002;2023-05-23T16:41:18;99233.47;;;16.28;76.26
75424;BME280;64005;55.160;36.002;2023-05-23T16:43:46;99231.09;;;16.30;76.23
75424;BME280;64005;55.160;36.002;2023-05-23T16:46:14;99229.03;;;16.27;76.32
75424;BME280;64005;55.160;36.002;2023-05-23T16:48:41;99231.50;;;16.28;76.38
75424;BME280;64005;55.160;36.002;2023-05-23T16:51:09;99141.72;;;15.74;76.21
75424;BME280;64005;55.160;36.002;2023-05-23T16:53:37;99219.81;;;16.26;76.62
75424;BME280;64005;55.160;36.002;2023-05-23T16:58:41;99135.13;;;15.67;76.46
75424;BME280;64005;55.160;36.002;2023-05-23T17:01:22;99220.25;;;16.28;76.19
75424;BME280;64005;55.160;36.002;2023-05-23T17:03:49;99210.13;;;16.24;76.35
75424;BME280;64005;55.160;36.002;2023-05-23T17:06:17;99218.63;;;16.27;76.32
75424;BME280;64005;55.160;36.002;2023-05-23T17:08:50;99219.88;;;16.30;76.25
75424;BME280;64005;55.160;36.002;2023-05-23T17:11:18;99219.06;;;16.29;76.55
75424;BME280;64005;55.160;36.002;2023-05-23T17:13:50;99212.63;;;16.29;76.40
75424;BME280;64005;55.160;36.002;2023-05-23T17:16:18;99209.03;;;16.28;76.56
75424;BME280;64005;55.160;36.002;2023-05-23T17:21:21;99100.25;;;15.48;76.75
75424;BME280;64005;55.160;36.002;2023-05-23T17:23:48;99213.69;;;16.21;76.83
75424;BME280;64005;55.160;36.002;2023-05-23T17:26:30;99210.72;;;16.14;76.88
75424;BME280;64005;55.160;36.002;2023-05-23T17:32:18;99210.91;;;16.05;77.32
75424;BME280;64005;55.160;36.002;2023-05-23T17:34:46;99188.97;;;15.92;77.07
75424;BME280;64005;55.160;36.002;2023-05-23T17:37:14;99158.97;;;15.76;77.05
75424;BME280;64005;55.160;36.002;2023-05-23T17:50:17;99130.00;;;15.53;76.96
75424;BME280;64005;55.160;36.002;2023-05-23T17:52:45;99162.59;;;15.77;76.83
75424;BME280;64005;55.160;36.002;2023-05-23T18:00:24;99215.41;;;16.10;77.25
75424;BME280;64005;55.160;36.002;2023-05-23T18:03:18;99227.84;;;16.09;77.02
75424;BME280;64005;55.160;36.002;2023-05-23T18:05:47;99223.41;;;16.08;77.38
75424;BME280;64005;55.160;36.002;2023-05-23T18:08:15;99203.97;;;15.99;77.46
75424;BME280;64005;55.160;36.002;2023-05-23T18:10:43;99218.97;;;16.07;77.57
75424;BME280;64005;55.160;36.002;2023-05-23T18:13:30;99214.53;;;16.06;77.19
75424;BME280;64005;55.160;36.002;2023-05-23T18:15:58;99218.06;;;16.03;77.53
75424;BME280;64005;55.160;36.002;2023-05-23T18:18:25;99208.47;;;16.04;77.70
75424;BME280;64005;55.160;36.002;2023-05-23T18:20:54;99167.69;;;15.71;77.89
75424;BME280;64005;55.160;36.002;2023-05-23T18:23:47;99221.97;;;15.98;77.49
75424;BME280;64005;55.160;36.002;2023-05-23T18:26:15;99215.56;;;15.98;77.93
75424;BME280;64005;55.160;36.002;2023-05-23T18:28:44;99220.44;;;16.01;77.82
75424;BME280;64005;55.160;36.002;2023-05-23T18:31:12;99202.78;;;16.00;77.96
75424;BME280;64005;55.160;36.002;2023-05-23T18:33:55;99200.94;;;15.88;77.63
75424;BME280;64005;55.160;36.002;2023-05-23T18:36:27;99200.66;;;15.94;77.77
75424;BME280;64005;55.160;36.002;2023-05-23T18:38:55;99107.81;;;15.29;77.71
75424;BME280;64005;55.160;36.002;2023-05-23T18:41:49;99211.22;;;16.00;77.74
75424;BME280;64005;55.160;36.002;2023-05-23T18:44:49;99205.50;;;15.97;77.53
75424;BME280;64005;55.160;36.002;2023-05-23T18:47:26;99209.06;;;15.94;77.94
75424;BME280;64005;55.160;36.002;2023-05-23T18:49:55;99205.09;;;15.95;78.03
75424;BME280;64005;55.160;36.002;2023-05-23T18:52:24;99200.66;;;15.94;77.96
75424;BME280;64005;55.160;36.002;2023-05-23T18:54:51;99186.25;;;15.95;78.00
75424;BME280;64005;55.160;36.002;2023-05-23T18:57:20;99134.63;;;15.61;78.16
75424;BME280;64005;55.160;36.002;2023-05-23T18:59:49;99190.25;;;15.94;78.11
75424;BME280;64005;55.160;36.002;2023-05-23T19:02:16;99191.13;;;15.98;77.77
75424;BME280;64005;55.160;36.002;2023-05-23T19:07:36;99189.50;;;15.97;77.59
75424;BME280;64005;55.160;36.002;2023-05-23T19:10:05;99203.09;;;15.95;77.99
75424;BME280;64005;55.160;36.002;2023-05-23T19:28:54;99114.13;;;15.26;78.03
75424;BME280;64005;55.160;36.002;2023-05-23T19:31:22;99196.78;;;15.82;78.21
75424;BME280;64005;55.160;36.002;2023-05-23T19:36:31;99081.72;;;15.09;78.19
75424;BME280;64005;55.160;36.002;2023-05-23T19:39:00;99195.59;;;15.83;78.34
75424;BME280;64005;55.160;36.002;2023-05-23T19:41:29;99182.22;;;15.77;78.52
75424;BME280;64005;55.160;36.002;2023-05-23T19:44:12;99183.84;;;15.78;78.07
75424;BME280;64005;55.160;36.002;2023-05-23T19:46:49;99191.56;;;15.81;78.26
75424;BME280;64005;55.160;36.002;2023-05-23T19:49:17;99194.63;;;15.76;78.57
75424;BME280;64005;55.160;36.002;2023-05-23T19:51:45;99192.25;;;15.78;78.53
75424;BME280;64005;55.160;36.002;2023-05-23T19:54:13;99185.84;;;15.77;78.68
75424;BME280;64005;55.160;36.002;2023-05-23T19:56:41;99184.22;;;15.76;78.58
75424;BME280;64005;55.160;36.002;2023-05-23T20:04:21;99059.69;;;14.92;78.67
75424;BME280;64005;55.160;36.002;2023-05-23T20:06:51;99074.50;;;14.92;78.69
75424;BME280;64005;55.160;36.002;2023-05-23T20:09:19;99181.53;;;15.64;79.16
75424;BME280;64005;55.160;36.002;2023-05-23T20:11:46;99181.09;;;15.62;79.20
75424;BME280;64005;55.160;36.002;2023-05-23T20:16:49;99177.38;;;15.58;79.33
75424;BME280;64005;55.160;36.002;2023-05-23T20:19:20;99175.34;;;15.55;79.33
75424;BME280;64005;55.160;36.002;2023-05-23T20:22:00;99170.97;;;15.58;79.08
75424;BME280;64005;55.160;36.002;2023-05-23T20:27:03;99167.00;;;15.59;79.35
75424;BME280;64005;55.160;36.002;2023-05-23T20:29:31;99173.69;;;15.54;79.30
75424;BME280;64005;55.160;36.002;2023-05-23T20:34:37;99094.28;;;14.99;79.56
75424;BME280;64005;55.160;36.002;2023-05-23T20:37:05;99060.16;;;14.78;79.46
75424;BME280;64005;55.160;36.002;2023-05-23T20:39:33;99038.13;;;14.61;79.80
75424;BME280;64005;55.160;36.002;2023-05-23T20:42:00;99047.13;;;14.70;79.70
75424;BME280;64005;55.160;36.002;2023-05-23T20:44:30;99060.44;;;14.73;79.50
75424;BME280;64005;55.160;36.002;2023-05-23T20:49:38;99125.44;;;15.14;79.50
75424;BME280;64005;55.160;36.002;2023-05-23T20:52:07;99185.00;;;15.42;79.38
75424;BME280;64005;55.160;36.002;2023-05-23T20:54:44;99042.00;;;14.56;79.23
75424;BME280;64005;55.160;36.002;2023-05-23T20:57:13;99086.53;;;14.77;80.03
75424;BME280;64005;55.160;36.002;2023-05-23T20:59:40;99153.47;;;15.14;80.62
75424;BME280;64005;55.160;36.002;2023-05-23T21:02:08;99162.41;;;15.03;81.01
75424;BME280;64005;55.160;36.002;2023-05-23T21:04:39;99150.94;;;14.93;80.92
75424;BME280;64005;55.160;36.002;2023-05-23T21:07:06;99154.00;;;15.03;81.10
75424;BME280;64005;55.160;36.002;2023-05-23T21:09:34;99060.50;;;14.45;81.18
75424;BME280;64005;55.160;36.002;2023-05-23T21:12:02;99144.72;;;14.99;81.17
75424;BME280;64005;55.160;36.002;2023-05-23T21:14:30;99143.06;;;14.98;81.32
75424;BME280;64005;55.160;36.002;2023-05-23T21:17:06;99132.50;;;14.92;81.26
75424;BME280;64005;55.160;36.002;2023-05-23T21:19:34;99143.06;;;14.98;81.33
75424;BME280;64005;55.160;36.002;2023-05-23T21:22:03;99135.78;;;14.94;81.30
75424;BME280;64005;55.160;36.002;2023-05-23T21:24:31;99131.78;;;14.95;81.59
75424;BME280;64005;55.160;36.002;2023-05-23T21:26:58;99136.66;;;14.98;81.41
75424;BME280;64005;55.160;36.002;2023-05-23T21:29:50;99137.47;;;14.98;81.17
75424;BME280;64005;55.160;36.002;2023-05-23T21:32:17;99142.25;;;14.98;81.51
75424;BME280;64005;55.160;36.002;2023-05-23T21:34:55;99139.47;;;14.98;81.30
75424;BME280;64005;55.160;36.002;2023-05-23T21:37:24;99132.69;;;14.99;81.21
75424;BME280;64005;55.160;36.002;2023-05-23T21:39:52;99131.06;;;14.98;81.36
75424;BME280;64005;55.160;36.002;2023-05-23T21:42:20;99133.41;;;14.96;81.55
75424;BME280;64005;55.160;36.002;2023-05-23T21:44:49;99125.38;;;14.94;81.63
75424;BME280;64005;55.160;36.002;2023-05-23T21:47:17;99132.97;;;14.94;81.38
75424;BME280;64005;55.160;36.002;2023-05-23T21:49:46;99118.59;;;14.95;81.27
75424;BME280;64005;55.160;36.002;2023-05-23T21:52:14;99117.78;;;14.95;81.46
75424;BME280;64005;55.160;36.002;2023-05-23T21:54:51;99123.41;;;14.95;81.47
75424;BME280;64005;55.160;36.002;2023-05-23T21:57:18;99110.91;;;14.92;81.70
75424;BME280;64005;55.160;36.002;2023-05-23T21:59:54;99105.31;;;14.92;81.62
75424;BME280;64005;55.160;36.002;2023-05-23T22:02:35;99109.28;;;14.91;81.51
75424;BME280;64005;55.160;36.002;2023-05-23T22:05:03;99107.66;;;14.90;81.81
75424;BME280;64005;55.160;36.002;2023-05-23T22:07:37;99006.59;;;14.32;81.68
75424;BME280;64005;55.160;36.002;2023-05-23T22:10:08;99080.56;;;14.79;81.75
75424;BME280;64005;55.160;36.002;2023-05-23T22:15:12;99106.75;;;14.86;81.79
75424;BME280;64005;55.160;36.002;2023-05-23T22:17:41;98979.69;;;14.12;81.61
75424;BME280;64005;55.160;36.002;2023-05-23T22:25:21;98978.59;;;14.01;81.92
75424;BME280;64005;55.160;36.002;2023-05-23T22:27:49;99092.22;;;14.65;81.93
75424;BME280;64005;55.160;36.002;2023-05-23T22:30:17;99091.13;;;14.69;82.04
75424;BME280;64005;55.160;36.002;2023-05-23T22:32:44;99088.78;;;14.71;82.08
75424;BME280;64005;55.160;36.002;2023-05-23T22:35:12;99087.97;;;14.71;82.10
75424;BME280;64005;55.160;36.002;2023-05-23T22:37:57;99091.22;;;14.73;82.10
75424;BME280;64005;55.160;36.002;2023-05-23T22:40:26;99077.59;;;14.71;82.25
75424;BME280;64005;55.160;36.002;2023-05-23T22:42:54;99088.50;;;14.77;82.07
75424;BME280;64005;55.160;36.002;2023-05-23T22:45:22;99072.91;;;14.76;82.18
75424;BME280;64005;55.160;36.002;2023-05-23T22:47:49;99078.13;;;14.77;82.19
75424;BME280;64005;55.160;36.002;2023-05-23T22:50:18;99080.56;;;14.79;82.11
75424;BME280;64005;55.160;36.002;2023-05-23T22:52:47;99068.91;;;14.77;82.05
75424;BME280;64005;55.160;36.002;2023-05-23T22:55:15;99077.31;;;14.77;82.06
75424;BME280;64005;55.160;36.002;2023-05-23T22:57:44;99081.19;;;14.72;82.22
75424;BME280;64005;55.160;36.002;2023-05-23T23:00:12;99077.50;;;14.68;82.48
75424;BME280;64005;55.160;36.002;2023-05-23T23:02:40;99077.88;;;14.66;82.44
75424;BME280;64005;55.160;36.002;2023-05-23T23:05:09;99082.28;;;14.67;82.45
75424;BME280;64005;55.160;36.002;2023-05-23T23:07:39;99075.53;;;14.68;82.46
75424;BME280;64005;55.160;36.002;2023-05-23T23:10:08;99071.16;;;14.71;82.34
75424;BME280;64005;55.160;36.002;2023-05-23T23:12:36;99068.47;;;14.75;82.36
75424;BME280;64005;55.160;36.002;2023-05-23T23:17:47;98966.06;;;14.11;82.18
75424;BME280;64005;55.160;36.002;2023-05-23T23:20:15;99076.78;;;14.87;82.18
75424;BME280;64005;55.160;36.002;2023-05-23T23:22:44;98965.22;;;14.10;82.18
75424;BME280;64005;55.160;36.002;2023-05-23T23:25:27;99015.91;;;14.52;81.82
75424;BME280;64005;55.160;36.002;2023-05-23T23:27:55;99086.06;;;14.91;82.20
75424;BME280;64005;55.160;36.002;2023-05-23T23:30:23;99066.91;;;14.93;82.01
75424;BME280;64005;55.160;36.002;2023-05-23T23:32:52;98985.09;;;14.37;82.18
75424;BME280;64005;55.160;36.002;2023-05-23T23:35:21;99053.09;;;14.84;82.15
75424;BME280;64005;55.160;36.002;2023-05-23T23:37:49;98961.16;;;14.23;81.86
75424;BME280;64005;55.160;36.002;2023-05-23T23:40:17;98971.03;;;14.33;81.91
75424;BME280;64005;55.160;36.002;2023-05-23T23:47:59;99038.19;;;14.80;81.99
75424;BME280;64005;55.160;36.002;2023-05-23T23:50:26;99055.06;;;14.99;82.13
